sensor_id;sensor_type;location;lat;lon;timestamp;pressure;altitude;pressure_sealevel;temperature;humidity
25420;BME280;13354;48.174;11.566;2024-02-16T00:00:11;95632.28;;;9.25;80.12
25420;BME280;13354;48.174;11.566;2024-02-16T00:02:40;95617.16;;;9.18;80.52
25420;BME280;13354;48.174;11.566;2024-02-16T00:05:07;95628.47;;;9.12;80.82
25420;BME280;13354;48.174;11.566;2024-02-16T00:07:33;95625.38;;;9.09;80.63
25420;BME280;13354;48.174;11.566;2024-02-16T00:09:59;95624.09;;;9.05;80.58
25420;BME280;13354;48.174;11.566;2024-02-16T00:12:25;95627.28;;;9.00;80.68
25420;BME280;13354;48.174;11.566;2024-02-16T00:14:50;95628.38;;;8.91;80.83
25420;BME280;13354;48.174;11.566;2024-02-16T00:17:15;95626.75;;;8.90;80.71
25420;BME280;13354;48.174;11.566;2024-02-16T00:19:41;95625.84;;;8.83;81.20
25420;BME280;13354;48.174;11.566;2024-02-16T00:22:06;95623.47;;;8.73;81.42
25420;BME280;13354;48.174;11.566;2024-02-16T00:24:35;95617.91;;;8.68;81.65
25420;BME280;13354;48.174;11.566;2024-02-16T00:27:02;95623.75;;;8.63;81.91
25420;BME280;13354;48.174;11.566;2024-02-16T00:29:33;95619.47;;;8.62;82.16
25420;BME280;13354;48.174;11.566;2024-02-16T00:31:58;95613.38;;;8.62;82.39
25420;BME280;13354;48.174;11.566;2024-02-16T00:34:26;95615.81;;;8.63;82.67
25420;BME280;13354;48.174;11.566;2024-02-16T00:36:52;95600.63;;;8.65;82.58
25420;BME280;13354;48.174;11.566;2024-02-16T00:39:17;95604.09;;;8.66;82.37
25420;BME280;13354;48.174;11.566;2024-02-16T00:41:43;95603.44;;;8.64;82.52
25420;BME280;13354;48.174;11.566;2024-02-16T00:44:08;95606.91;;;8.64;82.40
25420;BME280;13354;48.174;11.566;2024-02-16T00:46:35;95610.53;;;8.63;82.59
25420;BME280;13354;48.174;11.566;2024-02-16T00:49:01;95607.25;;;8.61;82.30
25420;BME280;13354;48.174;11.566;2024-02-16T00:51:26;95608.91;;;8.62;81.99
25420;BME280;13354;48.174;11.566;2024-02-16T00:53:52;95611.09;;;8.59;82.11
25420;BME280;13354;48.174;11.566;2024-02-16T00:56:18;95606.53;;;8.53;82.27
25420;BME280;13354;48.174;11.566;2024-02-16T00:58:43;95598.00;;;8.51;82.12
25420;BME280;13354;48.174;11.566;2024-02-16T01:01:08;95596.53;;;8.48;82.14
25420;BME280;13354;48.174;11.566;2024-02-16T01:03:37;95595.41;;;8.42;81.99
25420;BME280;13354;48.174;11.566;2024-02-16T01:06:03;95589.03;;;8.37;81.95
25420;BME280;13354;48.174;11.566;2024-02-16T01:08:28;95592.97;;;8.41;82.29
25420;BME280;13354;48.174;11.566;2024-02-16T01:10:54;95591.22;;;8.33;82.49
25420;BME280;13354;48.174;11.566;2024-02-16T01:13:19;95590.50;;;8.39;81.93
25420;BME280;13354;48.174;11.566;2024-02-16T01:15:44;95591.16;;;8.41;82.34
25420;BME280;13354;48.174;11.566;2024-02-16T01:18:10;95589.31;;;8.42;82.59
25420;BME280;13354;48.174;11.566;2024-02-16T01:20:36;95592.50;;;8.37;82.56
25420;BME280;13354;48.174;11.566;2024-02-16T01:23:01;95590.84;;;8.36;82.39
25420;BME280;13354;48.174;11.566;2024-02-16T01:25:27;95585.75;;;8.35;82.25
25420;BME280;13354;48.174;11.566;2024-02-16T01:27:53;95602.06;;;8.38;82.44
25420;BME280;13354;48.174;11.566;2024-02-16T01:30:18;95599.41;;;8.38;81.97
25420;BME280;13354;48.174;11.566;2024-02-16T01:32:45;95599.75;;;8.35;82.12
25420;BME280;13354;48.174;11.566;2024-02-16T01:35:10;95597.94;;;8.36;82.14
25420;BME280;13354;48.174;11.566;2024-02-16T01:37:36;95606.84;;;8.35;81.90
25420;BME280;13354;48.174;11.566;2024-02-16T01:40:01;95608.16;;;8.39;82.03
25420;BME280;13354;48.174;11.566;2024-02-16T01:42:28;95603.97;;;8.44;81.77
25420;BME280;13354;48.174;11.566;2024-02-16T01:44:53;95601.63;;;8.50;81.34
25420;BME280;13354;48.174;11.566;2024-02-16T01:47:19;95600.88;;;8.41;81.32
25420;BME280;13354;48.174;11.566;2024-02-16T01:49:45;95594.16;;;8.38;82.06
25420;BME280;13354;48.174;11.566;2024-02-16T01:52:10;95587.41;;;8.36;82.02
25420;BME280;13354;48.174;11.566;2024-02-16T01:54:36;95585.94;;;8.33;82.14
25420;BME280;13354;48.174;11.566;2024-02-16T01:57:03;95576.69;;;8.37;82.00
25420;BME280;13354;48.174;11.566;2024-02-16T01:59:30;95585.75;;;8.35;82.08
25420;BME280;13354;48.174;11.566;2024-02-16T02:01:56;95588.88;;;8.38;82.29
25420;BME280;13354;48.174;11.566;2024-02-16T02:04:21;95588.31;;;8.43;81.67
25420;BME280;13354;48.174;11.566;2024-02-16T02:06:47;95579.78;;;8.41;81.70
25420;BME280;13354;48.174;11.566;2024-02-16T02:09:12;95584.06;;;8.42;81.65
25420;BME280;13354;48.174;11.566;2024-02-16T02:11:37;95572.03;;;8.54;81.18
25420;BME280;13354;48.174;11.566;2024-02-16T02:14:03;95574.06;;;8.52;81.18
25420;BME280;13354;48.174;11.566;2024-02-16T02:16:28;95580.06;;;8.46;80.95
25420;BME280;13354;48.174;11.566;2024-02-16T02:18:53;95576.50;;;8.54;80.49
25420;BME280;13354;48.174;11.566;2024-02-16T02:21:19;95573.59;;;8.49;80.90
25420;BME280;13354;48.174;11.566;2024-02-16T02:23:44;95578.88;;;8.49;80.77
25420;BME280;13354;48.174;11.566;2024-02-16T02:26:14;95575.22;;;8.50;81.17
25420;BME280;13354;48.174;11.566;2024-02-16T02:28:39;95568.78;;;8.52;81.36
25420;BME280;13354;48.174;11.566;2024-02-16T02:31:04;95574.41;;;8.49;80.81
25420;BME280;13354;48.174;11.566;2024-02-16T02:33:30;95575.06;;;8.51;81.04
25420;BME280;13354;48.174;11.566;2024-02-16T02:35:55;95569.34;;;8.62;80.38
25420;BME280;13354;48.174;11.566;2024-02-16T02:38:20;95576.59;;;8.60;80.38
25420;BME280;13354;48.174;11.566;2024-02-16T02:40:46;95571.31;;;8.60;80.25
25420;BME280;13354;48.174;11.566;2024-02-16T02:43:11;95564.41;;;8.59;80.96
25420;BME280;13354;48.174;11.566;2024-02-16T02:45:37;95564.69;;;8.64;80.92
25420;BME280;13354;48.174;11.566;2024-02-16T02:48:02;95561.13;;;8.57;80.59
25420;BME280;13354;48.174;11.566;2024-02-16T02:50:27;95563.97;;;8.56;80.31
25420;BME280;13354;48.174;11.566;2024-02-16T02:52:53;95563.97;;;8.56;80.43
25420;BME280;13354;48.174;11.566;2024-02-16T02:55:18;95562.50;;;8.53;80.61
25420;BME280;13354;48.174;11.566;2024-02-16T02:57:44;95568.41;;;8.55;80.43
25420;BME280;13354;48.174;11.566;2024-02-16T03:00:09;95566.75;;;8.54;80.73
25420;BME280;13354;48.174;11.566;2024-02-16T03:02:39;95573.25;;;8.66;80.54
25420;BME280;13354;48.174;11.566;2024-02-16T03:05:08;95571.41;;;8.67;80.19
25420;BME280;13354;48.174;11.566;2024-02-16T03:07:33;95572.88;;;8.69;80.16
25420;BME280;13354;48.174;11.566;2024-02-16T03:09:59;95576.25;;;8.63;79.56
25420;BME280;13354;48.174;11.566;2024-02-16T03:12:24;95572.88;;;8.69;79.41
25420;BME280;13354;48.174;11.566;2024-02-16T03:14:50;95576.59;;;8.75;79.41
25420;BME280;13354;48.174;11.566;2024-02-16T03:17:15;95581.25;;;8.73;79.33
25420;BME280;13354;48.174;11.566;2024-02-16T03:19:41;95576.88;;;8.65;79.98
25420;BME280;13354;48.174;11.566;2024-02-16T03:22:06;95579.53;;;8.65;80.23
25420;BME280;13354;48.174;11.566;2024-02-16T03:24:32;95583.50;;;8.76;80.27
25420;BME280;13354;48.174;11.566;2024-02-16T03:26:57;95577.88;;;8.79;79.81
25420;BME280;13354;48.174;11.566;2024-02-16T03:29:23;95574.97;;;8.74;79.80
25420;BME280;13354;48.174;11.566;2024-02-16T03:31:49;95581.31;;;8.65;79.75
25420;BME280;13354;48.174;11.566;2024-02-16T03:34:15;95582.69;;;8.61;80.49
25420;BME280;13354;48.174;11.566;2024-02-16T03:36:40;95584.88;;;8.57;80.88
25420;BME280;13354;48.174;11.566;2024-02-16T03:39:06;95584.34;;;8.62;80.41
25420;BME280;13354;48.174;11.566;2024-02-16T03:41:34;95590.81;;;8.59;80.35
25420;BME280;13354;48.174;11.566;2024-02-16T03:43:59;95594.91;;;8.62;80.18
25420;BME280;13354;48.174;11.566;2024-02-16T03:46:26;95588.16;;;8.59;80.47
25420;BME280;13354;48.174;11.566;2024-02-16T03:48:51;95584.50;;;8.60;80.46
25420;BME280;13354;48.174;11.566;2024-02-16T03:51:17;95591.63;;;8.60;80.54
25420;BME280;13354;48.174;11.566;2024-02-16T03:53:42;95591.72;;;8.66;79.99
25420;BME280;13354;48.174;11.566;2024-02-16T03:56:10;95588.06;;;8.53;79.97
25420;BME280;13354;48.174;11.566;2024-02-16T03:58:36;95588.97;;;8.45;80.24
25420;BME280;13354;48.174;11.566;2024-02-16T04:01:01;95597.44;;;8.40;80.76
25420;BME280;13354;48.174;11.566;2024-02-16T04:03:27;95596.13;;;8.36;81.34
25420;BME280;13354;48.174;11.566;2024-02-16T04:05:53;95597.78;;;8.37;81.15
25420;BME280;13354;48.174;11.566;2024-02-16T04:08:18;95596.13;;;8.36;81.40
25420;BME280;13354;48.174;11.566;2024-02-16T04:10:45;95602.94;;;8.31;81.52
25420;BME280;13354;48.174;11.566;2024-02-16T04:13:10;95597.28;;;8.34;81.50
25420;BME280;13354;48.174;11.566;2024-02-16T04:15:36;95594.56;;;8.27;81.67
25420;BME280;13354;48.174;11.566;2024-02-16T04:18:01;95600.47;;;8.29;81.85
25420;BME280;13354;48.174;11.566;2024-02-16T04:20:27;95593.94;;;8.25;82.03
25420;BME280;13354;48.174;11.566;2024-02-16T04:22:52;95597.38;;;8.26;81.99
25420;BME280;13354;48.174;11.566;2024-02-16T04:25:17;95597.66;;;8.31;81.75
25420;BME280;13354;48.174;11.566;2024-02-16T04:27:43;95598.81;;;8.28;81.90
25420;BME280;13354;48.174;11.566;2024-02-16T04:30:08;95599.38;;;8.23;82.03
25420;BME280;13354;48.174;11.566;2024-02-16T04:32:33;95604.47;;;8.25;82.31
25420;BME280;13354;48.174;11.566;2024-02-16T04:34:59;95603.63;;;8.24;82.59
25420;BME280;13354;48.174;11.566;2024-02-16T04:37:25;95609.56;;;8.27;82.71
25420;BME280;13354;48.174;11.566;2024-02-16T04:39:50;95609.38;;;8.28;82.89
25420;BME280;13354;48.174;11.566;2024-02-16T04:42:16;95611.50;;;8.33;82.82
25420;BME280;13354;48.174;11.566;2024-02-16T04:44:42;95609.31;;;8.36;82.78
25420;BME280;13354;48.174;11.566;2024-02-16T04:47:07;95610.13;;;8.37;83.07
25420;BME280;13354;48.174;11.566;2024-02-16T04:49:34;95609.16;;;8.38;82.81
25420;BME280;13354;48.174;11.566;2024-02-16T04:51:59;95603.69;;;8.39;82.35
25420;BME280;13354;48.174;11.566;2024-02-16T04:54:24;95610.13;;;8.37;81.97
25420;BME280;13354;48.174;11.566;2024-02-16T04:56:50;95610.28;;;8.35;82.16
25420;BME280;13354;48.174;11.566;2024-02-16T04:59:16;95611.13;;;8.36;82.14
25420;BME280;13354;48.174;11.566;2024-02-16T05:01:45;95606.84;;;8.35;82.25
25420;BME280;13354;48.174;11.566;2024-02-16T05:04:11;95605.56;;;8.31;82.65
25420;BME280;13354;48.174;11.566;2024-02-16T05:06:41;95611.50;;;8.33;82.84
25420;BME280;13354;48.174;11.566;2024-02-16T05:09:06;95610.13;;;8.37;82.71
25420;BME280;13354;48.174;11.566;2024-02-16T05:11:32;95606.97;;;8.41;82.80
25420;BME280;13354;48.174;11.566;2024-02-16T05:13:58;95607.44;;;8.45;82.14
25420;BME280;13354;48.174;11.566;2024-02-16T05:16:23;95606.19;;;8.56;81.86
25420;BME280;13354;48.174;11.566;2024-02-16T05:18:49;95611.91;;;8.59;81.03
25420;BME280;13354;48.174;11.566;2024-02-16T05:21:14;95614.81;;;8.64;80.41
25420;BME280;13354;48.174;11.566;2024-02-16T05:23:39;95613.53;;;8.60;79.08
25420;BME280;13354;48.174;11.566;2024-02-16T05:26:05;95616.03;;;8.62;78.72
25420;BME280;13354;48.174;11.566;2024-02-16T05:28:30;95613.53;;;8.60;79.38
25420;BME280;13354;48.174;11.566;2024-02-16T05:30:56;95618.38;;;8.57;80.24
25420;BME280;13354;48.174;11.566;2024-02-16T05:33:22;95609.44;;;8.58;80.77
25420;BME280;13354;48.174;11.566;2024-02-16T05:35:48;95614.56;;;8.59;80.13
25420;BME280;13354;48.174;11.566;2024-02-16T05:38:20;95606.28;;;8.62;80.51
25420;BME280;13354;48.174;11.566;2024-02-16T05:40:57;95610.91;;;8.60;80.77
25420;BME280;13354;48.174;11.566;2024-02-16T05:43:23;95607.19;;;8.55;81.07
25420;BME280;13354;48.174;11.566;2024-02-16T05:45:51;95608.72;;;8.49;80.42
25420;BME280;13354;48.174;11.566;2024-02-16T05:48:16;95608.34;;;8.52;80.24
25420;BME280;13354;48.174;11.566;2024-02-16T05:50:42;95607.53;;;8.52;80.34
25420;BME280;13354;48.174;11.566;2024-02-16T05:53:09;95612.81;;;8.52;80.38
25420;BME280;13354;48.174;11.566;2024-02-16T05:55:36;95609.16;;;8.53;80.35
25420;BME280;13354;48.174;11.566;2024-02-16T05:58:01;95613.28;;;8.55;80.75
25420;BME280;13354;48.174;11.566;2024-02-16T06:00:26;95614.91;;;8.56;81.04
25420;BME280;13354;48.174;11.566;2024-02-16T06:02:52;95620.00;;;8.58;80.92
25420;BME280;13354;48.174;11.566;2024-02-16T06:05:18;95618.19;;;8.58;80.68
25420;BME280;13354;48.174;11.566;2024-02-16T06:07:45;95622.63;;;8.58;80.55
25420;BME280;13354;48.174;11.566;2024-02-16T06:10:10;95623.47;;;8.58;80.66
25420;BME280;13354;48.174;11.566;2024-02-16T06:12:37;95624.28;;;8.59;80.59
25420;BME280;13354;48.174;11.566;2024-02-16T06:15:04;95625.56;;;8.63;80.52
25420;BME280;13354;48.174;11.566;2024-02-16T06:17:30;95626.56;;;8.62;80.35
25420;BME280;13354;48.174;11.566;2024-02-16T06:19:55;95629.56;;;8.59;80.48
25420;BME280;13354;48.174;11.566;2024-02-16T06:22:20;95633.66;;;8.61;80.34
25420;BME280;13354;48.174;11.566;2024-02-16T06:24:46;95634.75;;;8.67;79.59
25420;BME280;13354;48.174;11.566;2024-02-16T06:27:11;95639.84;;;8.68;79.69
25420;BME280;13354;48.174;11.566;2024-02-16T06:29:36;95645.78;;;8.70;79.02
25420;BME280;13354;48.174;11.566;2024-02-16T06:32:02;95645.22;;;8.75;78.79
25420;BME280;13354;48.174;11.566;2024-02-16T06:34:28;95652.53;;;8.73;77.53
25420;BME280;13354;48.174;11.566;2024-02-16T06:36:53;95663.69;;;8.75;76.81
25420;BME280;13354;48.174;11.566;2024-02-16T06:39:18;95662.53;;;8.78;76.42
25420;BME280;13354;48.174;11.566;2024-02-16T06:41:46;95669.72;;;8.84;75.63
25420;BME280;13354;48.174;11.566;2024-02-16T06:44:12;95678.75;;;9.04;74.74
25420;BME280;13354;48.174;11.566;2024-02-16T06:46:38;95679.66;;;9.11;73.42
25420;BME280;13354;48.174;11.566;2024-02-16T06:49:03;95688.69;;;9.17;71.90
25420;BME280;13354;48.174;11.566;2024-02-16T06:51:28;95695.41;;;9.19;71.38
25420;BME280;13354;48.174;11.566;2024-02-16T06:53:54;95695.69;;;9.25;70.54
25420;BME280;13354;48.174;11.566;2024-02-16T06:56:20;95699.28;;;9.38;69.88
25420;BME280;13354;48.174;11.566;2024-02-16T06:58:46;95700.06;;;9.32;69.93
25420;BME280;13354;48.174;11.566;2024-02-16T07:01:13;95699.09;;;9.55;69.07
25420;BME280;13354;48.174;11.566;2024-02-16T07:03:38;95705.56;;;9.52;68.77
25420;BME280;13354;48.174;11.566;2024-02-16T07:06:04;95698.91;;;9.56;68.91
25420;BME280;13354;48.174;11.566;2024-02-16T07:08:32;95703.13;;;9.51;68.91
25420;BME280;13354;48.174;11.566;2024-02-16T07:10:58;95698.78;;;9.43;69.03
25420;BME280;13354;48.174;11.566;2024-02-16T07:13:23;95706.69;;;9.43;68.88
25420;BME280;13354;48.174;11.566;2024-02-16T07:15:49;95702.47;;;9.49;68.80
25420;BME280;13354;48.174;11.566;2024-02-16T07:18:15;95710.03;;;9.52;68.55
25420;BME280;13354;48.174;11.566;2024-02-16T07:20:40;95719.41;;;9.69;68.02
25420;BME280;13354;48.174;11.566;2024-02-16T07:23:06;95709.56;;;9.63;67.58
25420;BME280;13354;48.174;11.566;2024-02-16T07:25:32;95718.28;;;9.78;67.79
25420;BME280;13354;48.174;11.566;2024-02-16T07:27:57;95717.38;;;9.71;67.88
25420;BME280;13354;48.174;11.566;2024-02-16T07:30:22;95719.06;;;9.72;68.06
25420;BME280;13354;48.174;11.566;2024-02-16T07:32:49;95713.19;;;9.77;68.30
25420;BME280;13354;48.174;11.566;2024-02-16T07:35:15;95720.19;;;9.84;68.09
25420;BME280;13354;48.174;11.566;2024-02-16T07:37:42;95715.59;;;9.93;67.50
25420;BME280;13354;48.174;11.566;2024-02-16T07:40:08;95720.91;;;9.93;67.11
25420;BME280;13354;48.174;11.566;2024-02-16T07:42:38;95722.50;;;10.09;67.06
25420;BME280;13354;48.174;11.566;2024-02-16T07:45:05;95730.69;;;10.14;66.44
25420;BME280;13354;48.174;11.566;2024-02-16T07:47:31;95727.66;;;10.32;65.76
25420;BME280;13354;48.174;11.566;2024-02-16T07:49:57;95728.03;;;10.29;65.51
25420;BME280;13354;48.174;11.566;2024-02-16T07:52:22;95726.00;;;10.31;65.43
25420;BME280;13354;48.174;11.566;2024-02-16T07:54:48;95728.47;;;10.32;65.23
25420;BME280;13354;48.174;11.566;2024-02-16T07:57:13;95728.53;;;10.39;65.14
25420;BME280;13354;48.174;11.566;2024-02-16T07:59:40;95720.47;;;10.47;64.29
25420;BME280;13354;48.174;11.566;2024-02-16T08:02:05;95726.78;;;10.46;63.67
25420;BME280;13354;48.174;11.566;2024-02-16T08:04:32;95723.59;;;10.57;63.33
25420;BME280;13354;48.174;11.566;2024-02-16T08:06:57;95721.50;;;10.74;62.92
25420;BME280;13354;48.174;11.566;2024-02-16T08:09:23;95730.00;;;10.70;62.79
25420;BME280;13354;48.174;11.566;2024-02-16T08:11:48;95726.34;;;10.71;62.49
25420;BME280;13354;48.174;11.566;2024-02-16T08:14:13;95730.13;;;10.83;62.38
25420;BME280;13354;48.174;11.566;2024-02-16T08:16:39;95731.56;;;10.85;62.55
25420;BME280;13354;48.174;11.566;2024-02-16T08:19:04;95728.97;;;10.92;62.73
25420;BME280;13354;48.174;11.566;2024-02-16T08:21:30;95727.78;;;10.95;62.85
25420;BME280;13354;48.174;11.566;2024-02-16T08:23:56;95735.41;;;11.11;62.91
25420;BME280;13354;48.174;11.566;2024-02-16T08:26:21;95730.16;;;11.18;62.43
25420;BME280;13354;48.174;11.566;2024-02-16T08:28:46;95729.84;;;11.34;61.43
25420;BME280;13354;48.174;11.566;2024-02-16T08:31:16;95731.72;;;11.40;60.63
25420;BME280;13354;48.174;11.566;2024-02-16T08:33:43;95730.00;;;11.60;59.95
25420;BME280;13354;48.174;11.566;2024-02-16T08:36:09;95734.56;;;11.80;59.57
25420;BME280;13354;48.174;11.566;2024-02-16T08:38:36;95738.09;;;11.87;59.58
25420;BME280;13354;48.174;11.566;2024-02-16T08:41:02;95733.00;;;11.92;60.81
25420;BME280;13354;48.174;11.566;2024-02-16T08:43:28;95732.50;;;12.23;59.47
25420;BME280;13354;48.174;11.566;2024-02-16T08:45:54;95740.66;;;12.15;59.48
25420;BME280;13354;48.174;11.566;2024-02-16T08:48:19;95746.38;;;12.25;59.82
25420;BME280;13354;48.174;11.566;2024-02-16T08:50:45;95743.13;;;12.37;59.06
25420;BME280;13354;48.174;11.566;2024-02-16T08:53:10;95739.06;;;12.47;59.32
25420;BME280;13354;48.174;11.566;2024-02-16T08:55:35;95736.44;;;12.61;58.09
25420;BME280;13354;48.174;11.566;2024-02-16T08:58:01;95738.09;;;12.81;57.41
25420;BME280;13354;48.174;11.566;2024-02-16T09:00:26;95735.63;;;13.00;56.94
25420;BME280;13354;48.174;11.566;2024-02-16T09:02:53;95733.97;;;13.32;55.48
25420;BME280;13354;48.174;11.566;2024-02-16T09:05:19;95738.63;;;13.63;53.93
25420;BME280;13354;48.174;11.566;2024-02-16T09:07:45;95743.19;;;13.94;51.59
25420;BME280;13354;48.174;11.566;2024-02-16T09:10:12;95737.13;;;14.25;51.55
25420;BME280;13354;48.174;11.566;2024-02-16T09:12:39;95738.25;;;14.43;50.01
25420;BME280;13354;48.174;11.566;2024-02-16T09:15:05;95739.69;;;14.39;49.72
25420;BME280;13354;48.174;11.566;2024-02-16T09:17:31;95745.97;;;14.58;48.93
25420;BME280;13354;48.174;11.566;2024-02-16T09:19:57;95747.19;;;14.62;48.21
25420;BME280;13354;48.174;11.566;2024-02-16T09:22:22;95748.19;;;14.61;48.03
25420;BME280;13354;48.174;11.566;2024-02-16T09:24:47;95741.72;;;14.82;47.38
25420;BME280;13354;48.174;11.566;2024-02-16T09:27:13;95748.28;;;14.79;47.49
25420;BME280;13354;48.174;11.566;2024-02-16T09:29:38;95739.44;;;15.10;46.26
25420;BME280;13354;48.174;11.566;2024-02-16T09:32:05;95747.00;;;15.13;46.16
25420;BME280;13354;48.174;11.566;2024-02-16T09:34:31;95743.38;;;15.26;46.44
25420;BME280;13354;48.174;11.566;2024-02-16T09:36:56;95740.13;;;15.42;46.13
25420;BME280;13354;48.174;11.566;2024-02-16T09:39:21;95735.25;;;15.39;45.18
25420;BME280;13354;48.174;11.566;2024-02-16T09:41:50;95738.75;;;15.58;45.66
25420;BME280;13354;48.174;11.566;2024-02-16T09:44:17;95727.47;;;16.11;44.45
25420;BME280;13354;48.174;11.566;2024-02-16T09:46:44;95734.72;;;16.23;44.65
25420;BME280;13354;48.174;11.566;2024-02-16T09:49:10;95735.44;;;16.60;43.67
25420;BME280;13354;48.174;11.566;2024-02-16T09:51:36;95734.06;;;16.99;42.94
25420;BME280;13354;48.174;11.566;2024-02-16T09:54:03;95737.34;;;17.13;42.66
25420;BME280;13354;48.174;11.566;2024-02-16T09:56:28;95728.72;;;17.46;41.81
25420;BME280;13354;48.174;11.566;2024-02-16T09:58:54;95739.66;;;17.21;41.13
25420;BME280;13354;48.174;11.566;2024-02-16T10:01:23;95740.38;;;17.28;41.19
25420;BME280;13354;48.174;11.566;2024-02-16T10:03:49;95746.63;;;16.99;40.93
25420;BME280;13354;48.174;11.566;2024-02-16T10:06:16;95742.56;;;17.20;41.33
25420;BME280;13354;48.174;11.566;2024-02-16T10:11:16;95743.16;;;17.57;40.42
25420;BME280;13354;48.174;11.566;2024-02-16T10:13:59;95743.47;;;17.72;40.29
25420;BME280;13354;48.174;11.566;2024-02-16T10:16:25;95740.94;;;17.77;40.35
25420;BME280;13354;48.174;11.566;2024-02-16T10:18:54;95739.19;;;17.83;40.03
25420;BME280;13354;48.174;11.566;2024-02-16T10:21:27;95739.03;;;18.01;40.13
25420;BME280;13354;48.174;11.566;2024-02-16T10:24:02;95752.09;;;17.98;39.72
25420;BME280;13354;48.174;11.566;2024-02-16T10:26:28;95737.38;;;18.00;39.69
25420;BME280;13354;48.174;11.566;2024-02-16T10:28:55;95738.41;;;18.11;39.16
25420;BME280;13354;48.174;11.566;2024-02-16T10:31:25;95739.38;;;18.33;38.83
25420;BME280;13354;48.174;11.566;2024-02-16T10:34:00;95739.91;;;18.19;38.48
25420;BME280;13354;48.174;11.566;2024-02-16T10:36:32;95742.91;;;18.34;38.90
25420;BME280;13354;48.174;11.566;2024-02-16T10:38:58;95739.22;;;18.69;37.94
25420;BME280;13354;48.174;11.566;2024-02-16T10:41:26;95736.63;;;19.19;37.44
25420;BME280;13354;48.174;11.566;2024-02-16T10:43:54;95735.84;;;19.74;36.86
25420;BME280;13354;48.174;11.566;2024-02-16T10:46:20;95739.50;;;20.07;36.62
25420;BME280;13354;48.174;11.566;2024-02-16T10:48:46;95742.50;;;20.33;35.88
25420;BME280;13354;48.174;11.566;2024-02-16T10:51:12;95734.91;;;20.52;35.92
25420;BME280;13354;48.174;11.566;2024-02-16T10:53:38;95736.28;;;21.13;35.67
25420;BME280;13354;48.174;11.566;2024-02-16T10:56:06;95728.59;;;21.64;34.57
25420;BME280;13354;48.174;11.566;2024-02-16T10:58:32;95738.84;;;21.67;34.45
25420;BME280;13354;48.174;11.566;2024-02-16T11:01:07;95732.34;;;22.11;34.17
25420;BME280;13354;48.174;11.566;2024-02-16T11:03:33;95728.19;;;22.51;33.58
25420;BME280;13354;48.174;11.566;2024-02-16T11:05:58;95722.91;;;22.92;32.50
25420;BME280;13354;48.174;11.566;2024-02-16T11:08:25;95726.16;;;22.99;32.16
25420;BME280;13354;48.174;11.566;2024-02-16T11:11:00;95724.78;;;22.96;32.15
25420;BME280;13354;48.174;11.566;2024-02-16T11:13:32;95719.66;;;23.20;31.82
25420;BME280;13354;48.174;11.566;2024-02-16T11:16:01;95721.81;;;23.28;31.59
25420;BME280;13354;48.174;11.566;2024-02-16T11:18:31;95719.09;;;23.33;31.70
25420;BME280;13354;48.174;11.566;2024-02-16T11:21:03;95722.63;;;23.39;32.17
25420;BME280;13354;48.174;11.566;2024-02-16T11:23:32;95718.25;;;22.72;32.82
25420;BME280;13354;48.174;11.566;2024-02-16T11:26:10;95707.19;;;22.73;33.47
25420;BME280;13354;48.174;11.566;2024-02-16T11:28:37;95715.06;;;22.95;32.42
25420;BME280;13354;48.174;11.566;2024-02-16T11:31:03;95705.03;;;21.97;33.91
25420;BME280;13354;48.174;11.566;2024-02-16T11:33:30;95701.72;;;22.32;33.77
25420;BME280;13354;48.174;11.566;2024-02-16T11:36:00;95701.78;;;22.58;33.73
25420;BME280;13354;48.174;11.566;2024-02-16T11:38:26;95708.84;;;23.05;33.45
25420;BME280;13354;48.174;11.566;2024-02-16T11:41:03;95700.44;;;22.86;33.09
25420;BME280;13354;48.174;11.566;2024-02-16T11:43:30;95706.09;;;22.64;33.77
25420;BME280;13354;48.174;11.566;2024-02-16T11:45:56;95707.06;;;22.17;34.99
25420;BME280;13354;48.174;11.566;2024-02-16T11:48:27;95705.09;;;22.02;34.73
25420;BME280;13354;48.174;11.566;2024-02-16T11:51:01;95698.63;;;22.03;35.18
25420;BME280;13354;48.174;11.566;2024-02-16T11:53:28;95699.97;;;22.06;34.97
25420;BME280;13354;48.174;11.566;2024-02-16T11:55:53;95709.63;;;22.02;35.09
25420;BME280;13354;48.174;11.566;2024-02-16T11:58:19;95697.47;;;21.94;35.16
25420;BME280;13354;48.174;11.566;2024-02-16T12:00:46;95694.25;;;21.92;35.00
25420;BME280;13354;48.174;11.566;2024-02-16T12:03:18;95702.06;;;21.93;35.10
25420;BME280;13354;48.174;11.566;2024-02-16T12:06:04;95702.91;;;21.99;34.91
25420;BME280;13354;48.174;11.566;2024-02-16T12:08:33;95694.59;;;22.11;35.22
25420;BME280;13354;48.174;11.566;2024-02-16T12:10:59;95700.78;;;22.11;35.29
25420;BME280;13354;48.174;11.566;2024-02-16T12:13:25;95695.94;;;22.08;35.41
25420;BME280;13354;48.174;11.566;2024-02-16T12:15:52;95698.00;;;22.59;35.37
25420;BME280;13354;48.174;11.566;2024-02-16T12:18:24;95696.31;;;22.37;35.21
25420;BME280;13354;48.174;11.566;2024-02-16T12:21:06;95697.97;;;21.81;35.83
25420;BME280;13354;48.174;11.566;2024-02-16T12:23:34;95693.25;;;21.56;36.11
25420;BME280;13354;48.174;11.566;2024-02-16T12:25:59;95706.34;;;21.37;36.65
25420;BME280;13354;48.174;11.566;2024-02-16T12:28:29;95709.31;;;20.76;37.44
25420;BME280;13354;48.174;11.566;2024-02-16T12:30:55;95705.50;;;20.45;38.28
25420;BME280;13354;48.174;11.566;2024-02-16T12:33:23;95702.53;;;20.19;38.84
25420;BME280;13354;48.174;11.566;2024-02-16T12:35:49;95697.75;;;19.77;39.98
25420;BME280;13354;48.174;11.566;2024-02-16T12:38:15;95698.41;;;19.51;39.91
25420;BME280;13354;48.174;11.566;2024-02-16T12:40:48;95703.41;;;19.42;40.84
25420;BME280;13354;48.174;11.566;2024-02-16T12:43:13;95698.19;;;19.52;41.02
25420;BME280;13354;48.174;11.566;2024-02-16T12:45:39;95705.13;;;19.31;41.45
25420;BME280;13354;48.174;11.566;2024-02-16T12:48:05;95699.06;;;19.19;41.84
25420;BME280;13354;48.174;11.566;2024-02-16T12:50:31;95712.84;;;19.28;41.25
25420;BME280;13354;48.174;11.566;2024-02-16T12:52:57;95707.25;;;19.13;41.79